sensor_id;sensor_type;location;lat;lon;timestamp;P1;durP1;ratioP1;P2;durP2;ratioP2
9789;SDS011;4934;50.852;8.098;2023-01-29T00:02:15;28.20;;;10.77;;
9789;SDS011;4934;50.852;8.098;2023-01-29T00:04:41;26.27;;;10.18;;
9789;SDS011;4934;50.852;8.098;2023-01-29T00:07:07;29.07;;;11.60;;
9789;SDS011;4934;50.852;8.098;2023-01-29T00:09:32;24.17;;;11.07;;
9789;SDS011;4934;50.852;8.098;2023-01-29T00:11:58;31.00;;;10.90;;
9789;SDS011;4934;50.852;8.098;2023-01-29T00:14:24;30.13;;;11.23;;
9789;SDS011;4934;50.852;8.098;2023-01-29T00:16:51;23.07;;;10.80;;
9789;SDS011;4934;50.852;8.098;2023-01-29T00:19:17;29.67;;;12.20;;
9789;SDS011;4934;50.852;8.098;2023-01-29T00:21:43;28.33;;;11.37;;
9789;SDS011;4934;50.852;8.098;2023-01-29T00:24:09;29.17;;;10.93;;
9789;SDS011;4934;50.852;8.098;2023-01-29T00:26:35;25.23;;;10.30;;
9789;SDS011;4934;50.852;8.098;2023-01-29T00:29:02;28.43;;;10.67;;
9789;SDS011;4934;50.852;8.098;2023-01-29T00:31:29;28.97;;;11.03;;
9789;SDS011;4934;50.852;8.098;2023-01-29T00:33:55;27.00;;;10.67;;
9789;SDS011;4934;50.852;8.098;2023-01-29T00:36:21;28.10;;;11.37;;
9789;SDS011;4934;50.852;8.098;2023-01-29T00:38:47;26.10;;;10.10;;
9789;SDS011;4934;50.852;8.098;2023-01-29T00:41:22;31.07;;;12.03;;
9789;SDS011;4934;50.852;8.098;2023-01-29T00:44:09;31.93;;;11.83;;
9789;SDS011;4934;50.852;8.098;2023-01-29T00:46:53;29.93;;;12.30;;
9789;SDS011;4934;50.852;8.098;2023-01-29T00:49:19;33.00;;;12.40;;
9789;SDS011;4934;50.852;8.098;2023-01-29T00:51:44;31.03;;;12.27;;
9789;SDS011;4934;50.852;8.098;2023-01-29T00:54:30;35.27;;;12.97;;
9789;SDS011;4934;50.852;8.098;2023-01-29T00:56:55;29.23;;;12.13;;
9789;SDS011;4934;50.852;8.098;2023-01-29T00:59:21;27.80;;;11.20;;
9789;SDS011;4934;50.852;8.098;2023-01-29T01:01:46;31.03;;;11.97;;
9789;SDS011;4934;50.852;8.098;2023-01-29T01:04:31;27.73;;;11.37;;
9789;SDS011;4934;50.852;8.098;2023-01-29T01:06:56;29.83;;;11.33;;
9789;SDS011;4934;50.852;8.098;2023-01-29T01:09:22;27.03;;;11.43;;
9789;SDS011;4934;50.852;8.098;2023-01-29T01:12:06;30.30;;;11.33;;
9789;SDS011;4934;50.852;8.098;2023-01-29T01:14:32;26.57;;;11.30;;
9789;SDS011;4934;50.852;8.098;2023-01-29T01:17:00;29.35;;;11.30;;
9789;SDS011;4934;50.852;8.098;2023-01-29T01:19:26;28.27;;;10.10;;
9789;SDS011;4934;50.852;8.098;2023-01-29T01:21:51;27.40;;;9.83;;
9789;SDS011;4934;50.852;8.098;2023-01-29T01:24:17;27.10;;;11.20;;
9789;SDS011;4934;50.852;8.098;2023-01-29T01:26:44;31.90;;;11.47;;
9789;SDS011;4934;50.852;8.098;2023-01-29T01:29:10;32.20;;;11.67;;
9789;SDS011;4934;50.852;8.098;2023-01-29T01:31:36;30.60;;;10.77;;
9789;SDS011;4934;50.852;8.098;2023-01-29T01:34:02;30.30;;;11.23;;
9789;SDS011;4934;50.852;8.098;2023-01-29T01:36:27;33.73;;;11.23;;
9789;SDS011;4934;50.852;8.098;2023-01-29T01:38:53;29.13;;;11.60;;
9789;SDS011;4934;50.852;8.098;2023-01-29T01:41:19;25.37;;;10.30;;
9789;SDS011;4934;50.852;8.098;2023-01-29T01:46:12;32.43;;;12.43;;
9789;SDS011;4934;50.852;8.098;2023-01-29T01:48:38;27.13;;;10.27;;
9789;SDS011;4934;50.852;8.098;2023-01-29T01:51:04;27.13;;;11.20;;
9789;SDS011;4934;50.852;8.098;2023-01-29T01:53:33;25.37;;;9.83;;
9789;SDS011;4934;50.852;8.098;2023-01-29T01:56:05;27.87;;;10.60;;
9789;SDS011;4934;50.852;8.098;2023-01-29T01:58:40;25.97;;;10.53;;
9789;SDS011;4934;50.852;8.098;2023-01-29T02:01:09;26.63;;;11.87;;
9789;SDS011;4934;50.852;8.098;2023-01-29T02:03:38;28.43;;;12.07;;
9789;SDS011;4934;50.852;8.098;2023-01-29T02:06:27;28.33;;;11.40;;
9789;SDS011;4934;50.852;8.098;2023-01-29T02:09:16;30.13;;;11.90;;
9789;SDS011;4934;50.852;8.098;2023-01-29T02:12:03;32.45;;;11.93;;
9789;SDS011;4934;50.852;8.098;2023-01-29T02:14:35;31.13;;;11.07;;
9789;SDS011;4934;50.852;8.098;2023-01-29T02:17:04;25.27;;;10.30;;
9789;SDS011;4934;50.852;8.098;2023-01-29T02:22:16;30.30;;;11.03;;
9789;SDS011;4934;50.852;8.098;2023-01-29T02:24:57;38.90;;;11.57;;
9789;SDS011;4934;50.852;8.098;2023-01-29T02:27:32;28.70;;;11.27;;
9789;SDS011;4934;50.852;8.098;2023-01-29T02:30:27;33.13;;;11.50;;
9789;SDS011;4934;50.852;8.098;2023-01-29T02:33:08;27.27;;;10.70;;
9789;SDS011;4934;50.852;8.098;2023-01-29T02:36:02;29.47;;;11.63;;
9789;SDS011;4934;50.852;8.098;2023-01-29T02:38:55;32.30;;;12.03;;
9789;SDS011;4934;50.852;8.098;2023-01-29T02:41:30;36.00;;;12.00;;
9789;SDS011;4934;50.852;8.098;2023-01-29T02:44:06;33.70;;;12.37;;
9789;SDS011;4934;50.852;8.098;2023-01-29T02:49:32;31.30;;;10.13;;
9789;SDS011;4934;50.852;8.098;2023-01-29T02:52:14;30.73;;;10.63;;
9789;SDS011;4934;50.852;8.098;2023-01-29T02:57:14;31.37;;;10.20;;
9789;SDS011;4934;50.852;8.098;2023-01-29T03:02:35;30.47;;;10.97;;
9789;SDS011;4934;50.852;8.098;2023-01-29T03:05:26;30.80;;;11.43;;
9789;SDS011;4934;50.852;8.098;2023-01-29T03:08:19;28.83;;;10.73;;
9789;SDS011;4934;50.852;8.098;2023-01-29T03:11:00;33.53;;;10.87;;
9789;SDS011;4934;50.852;8.098;2023-01-29T03:13:32;31.27;;;10.93;;
9789;SDS011;4934;50.852;8.098;2023-01-29T03:19:13;31.73;;;11.23;;
9789;SDS011;4934;50.852;8.098;2023-01-29T03:22:00;32.73;;;10.57;;
9789;SDS011;4934;50.852;8.098;2023-01-29T03:24:36;26.75;;;10.23;;
9789;SDS011;4934;50.852;8.098;2023-01-29T03:27:27;33.23;;;10.70;;
9789;SDS011;4934;50.852;8.098;2023-01-29T03:30:16;36.37;;;11.20;;
9789;SDS011;4934;50.852;8.098;2023-01-29T03:33:02;32.60;;;10.47;;
9789;SDS011;4934;50.852;8.098;2023-01-29T03:35:33;30.87;;;11.60;;
9789;SDS011;4934;50.852;8.098;2023-01-29T03:38:04;27.63;;;10.90;;
9789;SDS011;4934;50.852;8.098;2023-01-29T03:40:36;33.47;;;10.53;;
9789;SDS011;4934;50.852;8.098;2023-01-29T03:43:11;34.10;;;11.50;;
9789;SDS011;4934;50.852;8.098;2023-01-29T03:48:36;38.57;;;11.90;;
9789;SDS011;4934;50.852;8.098;2023-01-29T03:54:33;33.60;;;11.43;;
9789;SDS011;4934;50.852;8.098;2023-01-29T03:57:12;27.87;;;10.10;;
9789;SDS011;4934;50.852;8.098;2023-01-29T03:59:56;30.73;;;11.00;;
9789;SDS011;4934;50.852;8.098;2023-01-29T04:02:30;32.43;;;9.97;;
9789;SDS011;4934;50.852;8.098;2023-01-29T04:05:08;32.67;;;11.90;;
9789;SDS011;4934;50.852;8.098;2023-01-29T04:07:41;31.65;;;11.15;;
9789;SDS011;4934;50.852;8.098;2023-01-29T04:10:10;29.83;;;11.33;;
9789;SDS011;4934;50.852;8.098;2023-01-29T04:12:41;36.73;;;11.27;;
9789;SDS011;4934;50.852;8.098;2023-01-29T04:15:13;37.60;;;12.20;;
9789;SDS011;4934;50.852;8.098;2023-01-29T04:17:42;35.00;;;12.17;;
9789;SDS011;4934;50.852;8.098;2023-01-29T04:20:13;32.13;;;11.20;;
9789;SDS011;4934;50.852;8.098;2023-01-29T04:22:39;30.37;;;10.37;;
9789;SDS011;4934;50.852;8.098;2023-01-29T04:25:10;30.33;;;9.57;;
9789;SDS011;4934;50.852;8.098;2023-01-29T04:30:41;29.20;;;10.30;;
9789;SDS011;4934;50.852;8.098;2023-01-29T04:33:34;28.73;;;10.33;;
9789;SDS011;4934;50.852;8.098;2023-01-29T04:38:54;36.10;;;11.07;;
9789;SDS011;4934;50.852;8.098;2023-01-29T04:41:32;28.53;;;10.20;;
9789;SDS011;4934;50.852;8.098;2023-01-29T04:52:56;23.50;;;9.10;;
9789;SDS011;4934;50.852;8.098;2023-01-29T04:55:47;31.33;;;10.87;;
9789;SDS011;4934;50.852;8.098;2023-01-29T04:58:31;29.93;;;11.13;;
9789;SDS011;4934;50.852;8.098;2023-01-29T05:01:06;30.27;;;10.30;;
9789;SDS011;4934;50.852;8.098;2023-01-29T05:03:35;36.53;;;10.67;;
9789;SDS011;4934;50.852;8.098;2023-01-29T05:06:02;36.97;;;11.27;;
9789;SDS011;4934;50.852;8.098;2023-01-29T05:08:29;33.70;;;11.37;;
9789;SDS011;4934;50.852;8.098;2023-01-29T05:10:57;31.97;;;11.00;;
9789;SDS011;4934;50.852;8.098;2023-01-29T05:13:24;32.90;;;11.50;;
9789;SDS011;4934;50.852;8.098;2023-01-29T05:16:00;35.47;;;11.10;;
9789;SDS011;4934;50.852;8.098;2023-01-29T05:18:32;33.77;;;10.70;;
9789;SDS011;4934;50.852;8.098;2023-01-29T05:20:58;31.37;;;10.73;;
9789;SDS011;4934;50.852;8.098;2023-01-29T05:23:28;28.17;;;10.53;;
9789;SDS011;4934;50.852;8.098;2023-01-29T05:25:54;37.17;;;11.93;;
9789;SDS011;4934;50.852;8.098;2023-01-29T05:28:21;34.73;;;11.30;;
9789;SDS011;4934;50.852;8.098;2023-01-29T05:30:48;34.87;;;12.50;;
9789;SDS011;4934;50.852;8.098;2023-01-29T05:33:28;43.33;;;13.48;;
9789;SDS011;4934;50.852;8.098;2023-01-29T05:35:55;33.13;;;12.03;;
9789;SDS011;4934;50.852;8.098;2023-01-29T05:38:23;28.20;;;10.85;;
9789;SDS011;4934;50.852;8.098;2023-01-29T05:40:49;45.47;;;13.10;;
9789;SDS011;4934;50.852;8.098;2023-01-29T05:45:55;35.53;;;11.00;;
9789;SDS011;4934;50.852;8.098;2023-01-29T05:48:23;30.03;;;10.50;;
9789;SDS011;4934;50.852;8.098;2023-01-29T05:50:49;31.00;;;11.40;;
9789;SDS011;4934;50.852;8.098;2023-01-29T05:53:15;34.53;;;11.57;;
9789;SDS011;4934;50.852;8.098;2023-01-29T05:55:44;32.13;;;11.47;;
9789;SDS011;4934;50.852;8.098;2023-01-29T05:58:10;31.37;;;11.33;;
9789;SDS011;4934;50.852;8.098;2023-01-29T06:00:36;35.30;;;10.90;;
9789;SDS011;4934;50.852;8.098;2023-01-29T06:03:02;36.53;;;12.30;;
9789;SDS011;4934;50.852;8.098;2023-01-29T06:05:28;42.50;;;14.20;;
9789;SDS011;4934;50.852;8.098;2023-01-29T06:07:53;46.23;;;14.13;;
9789;SDS011;4934;50.852;8.098;2023-01-29T06:10:19;41.40;;;14.10;;
9789;SDS011;4934;50.852;8.098;2023-01-29T06:12:45;40.23;;;12.80;;
9789;SDS011;4934;50.852;8.098;2023-01-29T06:15:11;29.83;;;11.43;;
9789;SDS011;4934;50.852;8.098;2023-01-29T06:17:39;29.52;;;10.13;;
9789;SDS011;4934;50.852;8.098;2023-01-29T06:20:05;29.57;;;10.90;;
9789;SDS011;4934;50.852;8.098;2023-01-29T06:22:32;30.30;;;11.47;;
9789;SDS011;4934;50.852;8.098;2023-01-29T06:24:58;35.27;;;11.63;;
9789;SDS011;4934;50.852;8.098;2023-01-29T06:27:23;31.73;;;11.07;;
9789;SDS011;4934;50.852;8.098;2023-01-29T06:29:49;35.77;;;11.93;;
9789;SDS011;4934;50.852;8.098;2023-01-29T06:32:14;33.40;;;10.90;;
9789;SDS011;4934;50.852;8.098;2023-01-29T06:34:40;29.70;;;10.47;;
9789;SDS011;4934;50.852;8.098;2023-01-29T06:37:05;31.30;;;11.40;;
9789;SDS011;4934;50.852;8.098;2023-01-29T06:39:32;34.80;;;10.90;;
9789;SDS011;4934;50.852;8.098;2023-01-29T06:41:57;37.03;;;12.97;;
9789;SDS011;4934;50.852;8.098;2023-01-29T06:44:23;36.73;;;12.03;;
9789;SDS011;4934;50.852;8.098;2023-01-29T06:46:50;44.13;;;14.13;;
9789;SDS011;4934;50.852;8.098;2023-01-29T06:49:15;39.37;;;13.10;;
9789;SDS011;4934;50.852;8.098;2023-01-29T06:51:41;40.30;;;12.57;;
9789;SDS011;4934;50.852;8.098;2023-01-29T06:54:09;42.00;;;13.53;;
9789;SDS011;4934;50.852;8.098;2023-01-29T06:56:35;40.78;;;13.23;;
9789;SDS011;4934;50.852;8.098;2023-01-29T06:59:00;40.30;;;12.10;;
9789;SDS011;4934;50.852;8.098;2023-01-29T07:01:26;37.03;;;12.30;;
9789;SDS011;4934;50.852;8.098;2023-01-29T07:03:52;37.30;;;11.67;;
9789;SDS011;4934;50.852;8.098;2023-01-29T07:06:28;41.33;;;12.40;;
9789;SDS011;4934;50.852;8.098;2023-01-29T07:08:54;37.23;;;11.90;;
9789;SDS011;4934;50.852;8.098;2023-01-29T07:11:20;37.10;;;12.40;;
9789;SDS011;4934;50.852;8.098;2023-01-29T07:13:45;34.13;;;10.87;;
9789;SDS011;4934;50.852;8.098;2023-01-29T07:16:13;32.73;;;12.03;;
9789;SDS011;4934;50.852;8.098;2023-01-29T07:18:38;33.40;;;10.80;;
9789;SDS011;4934;50.852;8.098;2023-01-29T07:21:04;27.93;;;10.97;;
9789;SDS011;4934;50.852;8.098;2023-01-29T07:23:31;33.00;;;10.03;;
9789;SDS011;4934;50.852;8.098;2023-01-29T07:25:59;35.50;;;11.97;;
9789;SDS011;4934;50.852;8.098;2023-01-29T07:28:29;33.97;;;11.67;;
9789;SDS011;4934;50.852;8.098;2023-01-29T07:30:58;39.67;;;11.97;;
9789;SDS011;4934;50.852;8.098;2023-01-29T07:33:23;32.60;;;12.53;;
9789;SDS011;4934;50.852;8.098;2023-01-29T07:35:49;36.70;;;12.43;;
9789;SDS011;4934;50.852;8.098;2023-01-29T07:38:16;31.07;;;10.97;;
9789;SDS011;4934;50.852;8.098;2023-01-29T07:40:41;34.70;;;11.37;;
9789;SDS011;4934;50.852;8.098;2023-01-29T07:43:07;34.50;;;12.50;;
9789;SDS011;4934;50.852;8.098;2023-01-29T07:45:35;37.57;;;11.53;;
9789;SDS011;4934;50.852;8.098;2023-01-29T07:48:02;37.80;;;11.85;;
9789;SDS011;4934;50.852;8.098;2023-01-29T07:50:29;34.93;;;12.00;;
9789;SDS011;4934;50.852;8.098;2023-01-29T07:52:57;34.17;;;12.47;;
9789;SDS011;4934;50.852;8.098;2023-01-29T07:55:23;42.07;;;13.87;;
9789;SDS011;4934;50.852;8.098;2023-01-29T07:57:58;43.30;;;13.20;;
9789;SDS011;4934;50.852;8.098;2023-01-29T08:00:28;46.93;;;14.70;;
9789;SDS011;4934;50.852;8.098;2023-01-29T08:03:01;51.23;;;16.23;;
9789;SDS011;4934;50.852;8.098;2023-01-29T08:05:35;42.93;;;13.73;;
9789;SDS011;4934;50.852;8.098;2023-01-29T08:08:01;44.63;;;14.63;;
9789;SDS011;4934;50.852;8.098;2023-01-29T08:10:28;48.93;;;15.40;;
9789;SDS011;4934;50.852;8.098;2023-01-29T08:12:54;46.17;;;14.87;;
9789;SDS011;4934;50.852;8.098;2023-01-29T08:15:21;41.37;;;15.07;;
9789;SDS011;4934;50.852;8.098;2023-01-29T08:17:47;36.50;;;13.40;;
9789;SDS011;4934;50.852;8.098;2023-01-29T08:20:13;44.80;;;14.13;;
9789;SDS011;4934;50.852;8.098;2023-01-29T08:22:39;53.00;;;13.90;;
9789;SDS011;4934;50.852;8.098;2023-01-29T08:25:05;40.20;;;14.60;;
9789;SDS011;4934;50.852;8.098;2023-01-29T08:27:30;49.10;;;15.60;;
9789;SDS011;4934;50.852;8.098;2023-01-29T08:29:56;40.40;;;14.60;;
9789;SDS011;4934;50.852;8.098;2023-01-29T08:32:22;37.83;;;13.10;;
9789;SDS011;4934;50.852;8.098;2023-01-29T08:34:47;39.73;;;14.40;;
9789;SDS011;4934;50.852;8.098;2023-01-29T08:37:13;47.00;;;13.57;;
9789;SDS011;4934;50.852;8.098;2023-01-29T08:39:38;37.60;;;13.67;;
9789;SDS011;4934;50.852;8.098;2023-01-29T08:42:04;44.70;;;13.83;;
9789;SDS011;4934;50.852;8.098;2023-01-29T08:44:30;42.63;;;14.63;;
9789;SDS011;4934;50.852;8.098;2023-01-29T08:46:56;40.93;;;15.93;;
9789;SDS011;4934;50.852;8.098;2023-01-29T08:49:22;41.20;;;15.07;;
9789;SDS011;4934;50.852;8.098;2023-01-29T08:51:47;41.27;;;14.67;;
9789;SDS011;4934;50.852;8.098;2023-01-29T08:54:16;44.53;;;16.00;;
9789;SDS011;4934;50.852;8.098;2023-01-29T08:56:41;47.40;;;14.70;;
9789;SDS011;4934;50.852;8.098;2023-01-29T08:59:08;52.30;;;16.57;;
9789;SDS011;4934;50.852;8.098;2023-01-29T09:01:47;58.57;;;17.27;;
9789;SDS011;4934;50.852;8.098;2023-01-29T09:04:14;46.83;;;16.40;;
9789;SDS011;4934;50.852;8.098;2023-01-29T09:06:40;56.30;;;16.27;;
9789;SDS011;4934;50.852;8.098;2023-01-29T09:09:06;52.67;;;18.20;;
9789;SDS011;4934;50.852;8.098;2023-01-29T09:11:32;49.40;;;16.87;;
9789;SDS011;4934;50.852;8.098;2023-01-29T09:13:57;55.57;;;18.40;;
9789;SDS011;4934;50.852;8.098;2023-01-29T09:16:23;52.67;;;16.93;;
9789;SDS011;4934;50.852;8.098;2023-01-29T09:18:48;63.40;;;21.67;;
9789;SDS011;4934;50.852;8.098;2023-01-29T09:21:14;85.50;;;30.30;;
9789;SDS011;4934;50.852;8.098;2023-01-29T09:23:48;83.87;;;29.67;;
9789;SDS011;4934;50.852;8.098;2023-01-29T09:26:14;60.40;;;22.40;;
9789;SDS011;4934;50.852;8.098;2023-01-29T09:28:40;69.03;;;24.67;;
9789;SDS011;4934;50.852;8.098;2023-01-29T09:31:05;63.40;;;23.10;;
9789;SDS011;4934;50.852;8.098;2023-01-29T09:33:31;61.07;;;21.67;;
9789;SDS011;4934;50.852;8.098;2023-01-29T09:35:56;58.97;;;20.97;;
9789;SDS011;4934;50.852;8.098;2023-01-29T09:38:22;55.03;;;20.80;;
9789;SDS011;4934;50.852;8.098;2023-01-29T09:40:59;62.73;;;21.60;;
9789;SDS011;4934;50.852;8.098;2023-01-29T09:43:59;74.23;;;24.37;;
9789;SDS011;4934;50.852;8.098;2023-01-29T09:49:13;83.20;;;25.90;;
9789;SDS011;4934;50.852;8.098;2023-01-29T09:51:52;98.17;;;29.27;;
9789;SDS011;4934;50.852;8.098;2023-01-29T09:56:54;65.97;;;20.85;;
9789;SDS011;4934;50.852;8.098;2023-01-29T09:59:22;88.30;;;27.73;;
9789;SDS011;4934;50.852;8.098;2023-01-29T10:02:03;100.07;;;29.43;;
9789;SDS011;4934;50.852;8.098;2023-01-29T10:11:09;106.77;;;33.90;;
9789;SDS011;4934;50.852;8.098;2023-01-29T10:19:15;97.47;;;28.97;;
9789;SDS011;4934;50.852;8.098;2023-01-29T10:24:16;94.73;;;32.03;;
9789;SDS011;4934;50.852;8.098;2023-01-29T10:26:46;88.93;;;28.07;;
9789;SDS011;4934;50.852;8.098;2023-01-29T10:29:14;88.93;;;29.07;;
9789;SDS011;4934;50.852;8.098;2023-01-29T10:31:43;92.20;;;29.80;;
9789;SDS011;4934;50.852;8.098;2023-01-29T10:34:15;86.07;;;29.23;;
9789;SDS011;4934;50.852;8.098;2023-01-29T10:36:55;87.47;;;28.97;;
9789;SDS011;4934;50.852;8.098;2023-01-29T10:39:22;77.13;;;28.13;;
9789;SDS011;4934;50.852;8.098;2023-01-29T10:48:02;73.40;;;25.93;;
9789;SDS011;4934;50.852;8.098;2023-01-29T10:50:49;89.37;;;28.63;;
9789;SDS011;4934;50.852;8.098;2023-01-29T10:58:43;80.70;;;27.03;;
9789;SDS011;4934;50.852;8.098;2023-01-29T11:01:15;80.10;;;26.20;;
9789;SDS011;4934;50.852;8.098;2023-01-29T11:03:41;86.13;;;29.67;;
9789;SDS011;4934;50.852;8.098;2023-01-29T11:08:57;88.33;;;28.20;;
9789;SDS011;4934;50.852;8.098;2023-01-29T11:11:40;73.67;;;24.93;;
9789;SDS011;4934;50.852;8.098;2023-01-29T11:14:18;72.53;;;25.17;;
9789;SDS011;4934;50.852;8.098;2023-01-29T11:16:48;78.40;;;28.03;;
9789;SDS011;4934;50.852;8.098;2023-01-29T11:19:15;79.47;;;25.03;;
9789;SDS011;4934;50.852;8.098;2023-01-29T11:21:51;85.67;;;26.80;;
9789;SDS011;4934;50.852;8.098;2023-01-29T11:24:19;72.07;;;25.70;;
9789;SDS011;4934;50.852;8.098;2023-01-29T11:26:45;72.83;;;24.77;;
9789;SDS011;4934;50.852;8.098;2023-01-29T11:32:02;74.67;;;25.10;;
9789;SDS011;4934;50.852;8.098;2023-01-29T11:34:30;76.27;;;24.47;;
9789;SDS011;4934;50.852;8.098;2023-01-29T11:36:57;66.90;;;25.50;;
9789;SDS011;4934;50.852;8.098;2023-01-29T11:39:41;74.03;;;25.00;;
9789;SDS011;4934;50.852;8.098;2023-01-29T11:42:17;73.23;;;24.33;;
9789;SDS011;4934;50.852;8.098;2023-01-29T11:44:44;65.77;;;24.13;;
9789;SDS011;4934;50.852;8.098;2023-01-29T11:49:39;81.60;;;26.98;;
9789;SDS011;4934;50.852;8.098;2023-01-29T11:52:13;67.10;;;23.97;;
9789;SDS011;4934;50.852;8.098;2023-01-29T11:57:47;72.00;;;25.10;;
9789;SDS011;4934;50.852;8.098;2023-01-29T12:00:38;77.87;;;26.70;;
9789;SDS011;4934;50.852;8.098;2023-01-29T12:05:40;72.27;;;25.67;;
9789;SDS011;4934;50.852;8.098;2023-01-29T12:08:21;74.50;;;26.10;;
9789;SDS011;4934;50.852;8.098;2023-01-29T12:10:48;65.27;;;23.00;;
9789;SDS011;4934;50.852;8.098;2023-01-29T12:15:42;73.37;;;22.10;;
9789;SDS011;4934;50.852;8.098;2023-01-29T12:18:13;62.20;;;23.63;;
9789;SDS011;4934;50.852;8.098;2023-01-29T12:20:52;65.93;;;21.83;;
9789;SDS011;4934;50.852;8.098;2023-01-29T12:26:08;68.15;;;23.20;;
9789;SDS011;4934;50.852;8.098;2023-01-29T12:28:49;65.10;;;22.70;;
9789;SDS011;4934;50.852;8.098;2023-01-29T12:36:41;69.17;;;24.47;;
9789;SDS011;4934;50.852;8.098;2023-01-29T12:39:11;61.33;;;22.40;;
9789;SDS011;4934;50.852;8.098;2023-01-29T12:41:44;54.67;;;19.77;;
9789;SDS011;4934;50.852;8.098;2023-01-29T12:44:30;60.60;;;20.80;;
9789;SDS011;4934;50.852;8.098;2023-01-29T12:47:06;64.97;;;21.77;;
9789;SDS011;4934;50.852;8.098;2023-01-29T12:49:36;64.13;;;23.47;;
9789;SDS011;4934;50.852;8.098;2023-01-29T12:54:35;55.40;;;20.40;;
9789;SDS011;4934;50.852;8.098;2023-01-29T12:57:09;64.73;;;22.43;;
9789;SDS011;4934;50.852;8.098;2023-01-29T12:59:54;64.93;;;23.20;;
9789;SDS011;4934;50.852;8.098;2023-01-29T13:05:25;66.33;;;23.60;;
9789;SDS011;4934;50.852;8.098;2023-01-29T13:08:02;53.13;;;18.65;;
9789;SDS011;4934;50.852;8.098;2023-01-29T13:10:54;66.83;;;24.13;;
9789;SDS011;4934;50.852;8.098;2023-01-29T13:13:32;58.33;;;21.47;;
9789;SDS011;4934;50.852;8.098;2023-01-29T13:16:03;54.20;;;19.80;;
9789;SDS011;4934;50.852;8.098;2023-01-29T13:18:53;57.17;;;20.63;;
9789;SDS011;4934;50.852;8.098;2023-01-29T13:21:23;62.35;;;21.65;;
9789;SDS011;4934;50.852;8.098;2023-01-29T13:23:53;58.57;;;20.60;;
9789;SDS011;4934;50.852;8.098;2023-01-29T13:26:21;59.13;;;21.37;;
9789;SDS011;4934;50.852;8.098;2023-01-29T13:28:48;61.17;;;19.80;;
9789;SDS011;4934;50.852;8.098;2023-01-29T13:31:28;59.17;;;22.37;;
9789;SDS011;4934;50.852;8.098;2023-01-29T13:34:31;57.13;;;21.60;;
9789;SDS011;4934;50.852;8.098;2023-01-29T13:37:10;61.53;;;21.00;;
9789;SDS011;4934;50.852;8.098;2023-01-29T13:39:49;67.13;;;23.07;;
9789;SDS011;4934;50.852;8.098;2023-01-29T13:42:18;66.37;;;23.00;;
9789;SDS011;4934;50.852;8.098;2023-01-29T13:45:04;64.17;;;21.83;;
9789;SDS011;4934;50.852;8.098;2023-01-29T13:47:32;64.10;;;22.17;;
9789;SDS011;4934;50.852;8.098;2023-01-29T13:50:03;72.63;;;22.83;;
9789;SDS011;4934;50.852;8.098;2023-01-29T13:52:42;58.80;;;20.90;;
9789;SDS011;4934;50.852;8.098;2023-01-29T14:00:08;67.95;;;23.33;;
9789;SDS011;4934;50.852;8.098;2023-01-29T14:10:22;57.30;;;20.33;;
9789;SDS011;4934;50.852;8.098;2023-01-29T14:12:52;59.60;;;19.02;;
9789;SDS011;4934;50.852;8.098;2023-01-29T14:15:23;66.93;;;21.00;;
9789;SDS011;4934;50.852;8.098;2023-01-29T14:17:58;58.53;;;20.27;;
9789;SDS011;4934;50.852;8.098;2023-01-29T14:20:32;54.72;;;20.20;;
9789;SDS011;4934;50.852;8.098;2023-01-29T14:23:01;49.87;;;18.20;;
9789;SDS011;4934;50.852;8.098;2023-01-29T14:25:29;49.10;;;18.63;;
9789;SDS011;4934;50.852;8.098;2023-01-29T14:27:58;55.13;;;18.33;;
9789;SDS011;4934;50.852;8.098;2023-01-29T14:30:29;48.53;;;17.13;;
9789;SDS011;4934;50.852;8.098;2023-01-29T14:32:56;53.33;;;18.33;;
9789;SDS011;4934;50.852;8.098;2023-01-29T14:35:26;45.50;;;16.23;;
9789;SDS011;4934;50.852;8.098;2023-01-29T14:37:57;48.23;;;17.50;;
9789;SDS011;4934;50.852;8.098;2023-01-29T14:40:26;45.67;;;14.97;;
9789;SDS011;4934;50.852;8.098;2023-01-29T14:43:01;49.95;;;16.80;;
9789;SDS011;4934;50.852;8.098;2023-01-29T14:45:34;48.57;;;17.27;;
9789;SDS011;4934;50.852;8.098;2023-01-29T14:48:02;46.17;;;17.07;;
9789;SDS011;4934;50.852;8.098;2023-01-29T14:53:00;41.03;;;16.13;;
9789;SDS011;4934;50.852;8.098;2023-01-29T14:55:44;40.77;;;14.77;;
9789;SDS011;4934;50.852;8.098;2023-01-29T14:58:41;39.00;;;13.80;;
9789;SDS011;4934;50.852;8.098;2023-01-29T15:06:41;32.17;;;12.87;;
9789;SDS011;4934;50.852;8.098;2023-01-29T15:09:16;39.60;;;13.40;;
9789;SDS011;4934;50.852;8.098;2023-01-29T15:11:50;34.80;;;13.80;;
9789;SDS011;4934;50.852;8.098;2023-01-29T15:14:30;40.47;;;15.37;;
9789;SDS011;4934;50.852;8.098;2023-01-29T15:17:01;50.53;;;18.40;;
9789;SDS011;4934;50.852;8.098;2023-01-29T15:19:43;38.33;;;15.97;;
9789;SDS011;4934;50.852;8.098;2023-01-29T15:24:45;37.37;;;14.53;;
9789;SDS011;4934;50.852;8.098;2023-01-29T15:27:13;37.27;;;14.00;;
9789;SDS011;4934;50.852;8.098;2023-01-29T15:29:41;41.87;;;14.33;;
9789;SDS011;4934;50.852;8.098;2023-01-29T15:32:15;37.37;;;15.63;;
9789;SDS011;4934;50.852;8.098;2023-01-29T15:34:52;39.47;;;14.40;;
9789;SDS011;4934;50.852;8.098;2023-01-29T15:37:23;39.03;;;14.73;;
9789;SDS011;4934;50.852;8.098;2023-01-29T15:39:51;41.63;;;13.47;;
9789;SDS011;4934;50.852;8.098;2023-01-29T15:42:17;38.50;;;13.53;;
9789;SDS011;4934;50.852;8.098;2023-01-29T15:44:49;37.90;;;15.33;;
9789;SDS011;4934;50.852;8.098;2023-01-29T15:47:15;41.77;;;15.47;;
9789;SDS011;4934;50.852;8.098;2023-01-29T15:49:43;40.50;;;15.83;;
9789;SDS011;4934;50.852;8.098;2023-01-29T15:54:56;39.43;;;13.57;;
9789;SDS011;4934;50.852;8.098;2023-01-29T15:57:29;41.67;;;13.97;;
9789;SDS011;4934;50.852;8.098;2023-01-29T16:00:03;41.47;;;15.93;;
9789;SDS011;4934;50.852;8.098;2023-01-29T16:02:34;42.73;;;16.53;;
9789;SDS011;4934;50.852;8.098;2023-01-29T16:05:05;35.00;;;13.70;;
9789;SDS011;4934;50.852;8.098;2023-01-29T16:07:39;33.13;;;13.67;;
9789;SDS011;4934;50.852;8.098;2023-01-29T16:10:06;39.63;;;13.87;;
9789;SDS011;4934;50.852;8.098;2023-01-29T16:12:38;36.57;;;14.63;;
9789;SDS011;4934;50.852;8.098;2023-01-29T16:15:04;41.10;;;14.63;;
9789;SDS011;4934;50.852;8.098;2023-01-29T16:17:32;38.67;;;14.07;;
9789;SDS011;4934;50.852;8.098;2023-01-29T16:20:00;34.65;;;13.95;;
9789;SDS011;4934;50.852;8.098;2023-01-29T16:22:30;40.40;;;14.93;;
9789;SDS011;4934;50.852;8.098;2023-01-29T16:25:05;40.00;;;16.33;;
9789;SDS011;4934;50.852;8.098;2023-01-29T16:27:36;41.20;;;16.10;;
9789;SDS011;4934;50.852;8.098;2023-01-29T16:30:03;38.50;;;15.33;;
9789;SDS011;4934;50.852;8.098;2023-01-29T16:32:29;37.67;;;15.10;;
9789;SDS011;4934;50.852;8.098;2023-01-29T16:39:51;36.10;;;14.03;;
9789;SDS011;4934;50.852;8.098;2023-01-29T16:47:27;37.20;;;14.67;;
9789;SDS011;4934;50.852;8.098;2023-01-29T16:49:57;34.17;;;14.73;;
9789;SDS011;4934;50.852;8.098;2023-01-29T16:52:54;37.77;;;14.93;;
9789;SDS011;4934;50.852;8.098;2023-01-29T16:55:22;38.70;;;15.80;;
9789;SDS011;4934;50.852;8.098;2023-01-29T16:57:54;33.72;;;13.68;;
9789;SDS011;4934;50.852;8.098;2023-01-29T17:00:21;38.13;;;13.13;;
9789;SDS011;4934;50.852;8.098;2023-01-29T17:02:53;34.37;;;13.23;;
9789;SDS011;4934;50.852;8.098;2023-01-29T17:05:27;36.30;;;13.87;;
9789;SDS011;4934;50.852;8.098;2023-01-29T17:07:55;34.53;;;13.77;;
9789;SDS011;4934;50.852;8.098;2023-01-29T17:10:22;37.00;;;14.37;;
9789;SDS011;4934;50.852;8.098;2023-01-29T17:13:14;40.23;;;17.67;;
9789;SDS011;4934;50.852;8.098;2023-01-29T17:15:45;40.40;;;14.93;;
9789;SDS011;4934;50.852;8.098;2023-01-29T17:18:18;35.43;;;14.03;;
9789;SDS011;4934;50.852;8.098;2023-01-29T17:20:45;37.00;;;13.80;;
9789;SDS011;4934;50.852;8.098;2023-01-29T17:23:11;37.03;;;14.57;;
9789;SDS011;4934;50.852;8.098;2023-01-29T17:25:37;32.80;;;13.23;;
9789;SDS011;4934;50.852;8.098;2023-01-29T17:28:03;35.43;;;14.57;;
9789;SDS011;4934;50.852;8.098;2023-01-29T17:30:30;33.50;;;12.80;;